createdAt,value
2022-08-07T00:00:26.921Z,59.73
2022-08-07T00:02:58.010Z,59.90
2022-08-07T00:05:26.569Z,60.02
2022-08-07T00:07:58.245Z,59.62
2022-08-07T00:10:30.992Z,59.54
2022-08-07T00:13:09.734Z,60.53
2022-08-07T00:15:51.512Z,60.03
2022-08-07T00:18:23.857Z,59.93
2022-08-07T00:21:01.395Z,59.46
2022-08-07T00:23:31.015Z,59.67
2022-08-07T00:26:06.852Z,59.82
2022-08-07T00:28:45.725Z,58.61
2022-08-07T00:31:21.398Z,58.41
2022-08-07T00:33:50.145Z,58.84
2022-08-07T00:36:17.634Z,58.69
2022-08-07T00:38:45.136Z,58.65
2022-08-07T00:41:14.976Z,58.92
2022-08-07T00:43:59.418Z,60.53
2022-08-07T00:46:33.127Z,58.64
2022-08-07T00:49:03.348Z,59.00
2022-08-07T00:51:56.895Z,59.37
2022-08-07T00:54:19.764Z,59.48
2022-08-07T00:56:49.840Z,60.03
2022-08-07T00:59:20.232Z,60.66
2022-08-07T01:02:03.004Z,60.07
2022-08-07T01:04:35.511Z,59.79
2022-08-07T01:07:11.022Z,59.32
2022-08-07T01:10:06.372Z,59.78
2022-08-07T01:12:30.221Z,59.53
2022-08-07T01:15:03.735Z,59.34
2022-08-07T01:17:33.348Z,59.65
2022-08-07T01:20:10.359Z,60.85
2022-08-07T01:23:00.858Z,59.32
2022-08-07T01:25:54.613Z,59.11
2022-08-07T01:28:23.064Z,58.34
2022-08-07T01:30:56.066Z,58.08
2022-08-07T01:33:30.162Z,57.15
2022-08-07T01:36:16.775Z,56.64
2022-08-07T01:38:46.481Z,55.85
2022-08-07T01:41:26.368Z,55.52
2022-08-07T01:43:59.305Z,54.79
2022-08-07T01:46:31.535Z,54.48
2022-08-07T01:48:59.993Z,53.87
2022-08-07T01:52:03.503Z,53.46
2022-08-07T01:54:36.392Z,53.65
2022-08-07T01:57:24.738Z,53.03
2022-08-07T02:00:13.690Z,52.43
2022-08-07T02:03:19.159Z,52.11
2022-08-07T02:06:30.768Z,51.53
2022-08-07T02:08:54.365Z,50.65
2022-08-07T02:11:30.922Z,50.16
2022-08-07T02:14:35.774Z,50.53
2022-08-07T02:17:03.735Z,49.58
2022-08-07T02:20:07.525Z,50.06
2022-08-07T02:22:25.950Z,49.77
2022-08-07T02:24:56.332Z,49.04
2022-08-07T02:27:26.442Z,48.99
2022-08-07T02:30:07.165Z,48.85
2022-08-07T02:32:39.491Z,48.69
2022-08-07T02:36:30.864Z,48.37
2022-08-07T02:38:18.291Z,48.11
2022-08-07T02:40:55.526Z,47.64
2022-08-07T02:43:24.088Z,47.01
2022-08-07T02:46:00.576Z,47.06
2022-08-07T02:48:32.592Z,46.66
2022-08-07T02:51:28.830Z,46.99
2022-08-07T02:54:03.761Z,45.74
2022-08-07T02:56:34.394Z,44.97
2022-08-07T02:59:06.226Z,43.82
2022-08-07T03:01:39.992Z,42.68
2022-08-07T03:04:14.800Z,40.56
2022-08-07T03:06:48.262Z,40.07
2022-08-07T03:09:43.233Z,38.66
2022-08-07T03:12:21.604Z,37.00
2022-08-07T03:14:56.513Z,35.36
2022-08-07T03:17:25.414Z,35.14
2022-08-07T03:19:55.786Z,34.11
2022-08-07T03:22:30.182Z,33.00
2022-08-07T03:25:00.424Z,31.85
2022-08-07T03:28:09.012Z,31.11
2022-08-07T03:30:24.290Z,30.39
2022-08-07T03:32:58.639Z,29.86
2022-08-07T03:35:43.610Z,28.82
2022-08-07T03:38:21.174Z,28.02
2022-08-07T03:40:57.622Z,27.46
2022-08-07T03:43:32.444Z,27.16
2022-08-07T03:46:03.867Z,26.25
2022-08-07T03:48:45.537Z,26.02
2022-08-07T03:51:47.941Z,25.26
2022-08-07T03:54:36.279Z,27.18
2022-08-07T03:58:34.862Z,24.66
2022-08-07T04:00:01.858Z,23.78
2022-08-07T04:02:32.523Z,23.31
2022-08-07T04:05:00.275Z,22.76
2022-08-07T04:07:36.220Z,21.97
2022-08-07T04:10:15.749Z,21.93
2022-08-07T04:12:49.524Z,21.44
2022-08-07T04:15:19.169Z,21.31
2022-08-07T04:18:57.425Z,20.74
2022-08-07T04:20:35.440Z,20.57
2022-08-07T04:23:06.210Z,20.29
2022-08-07T04:25:40.968Z,19.52
2022-08-07T04:28:13.303Z,19.80
2022-08-07T04:30:55.101Z,19.44
2022-08-07T04:33:29.066Z,18.98
2022-08-07T04:35:58.877Z,17.99
2022-08-07T04:38:29.307Z,18.31
2022-08-07T04:40:58.722Z,17.84
2022-08-07T04:44:10.604Z,18.07
2022-08-07T04:47:04.338Z,17.44
2022-08-07T04:49:57.720Z,17.19
2022-08-07T04:52:40.382Z,17.11
2022-08-07T04:58:12.162Z,18.02
2022-08-07T04:58:31.499Z,16.68
2022-08-07T05:01:30.288Z,16.53
2022-08-07T05:04:18.016Z,16.45
2022-08-07T05:07:20.292Z,16.50
2022-08-07T05:10:01.294Z,15.63
2022-08-07T05:14:45.705Z,16.13
2022-08-07T05:15:53.918Z,14.90
2022-08-07T05:18:37.033Z,15.56
2022-08-07T05:21:10.064Z,14.53
2022-08-07T05:23:52.352Z,14.14
2022-08-07T05:26:23.717Z,14.27
2022-08-07T05:29:04.608Z,14.40
2022-08-07T05:31:38.908Z,14.23
2022-08-07T05:34:16.214Z,14.41
2022-08-07T05:36:52.967Z,14.17
2022-08-07T05:40:06.773Z,13.59
2022-08-07T05:42:33.287Z,13.54
2022-08-07T05:45:14.424Z,13.53
2022-08-07T05:48:01.090Z,13.18
2022-08-07T05:50:39.336Z,13.16
2022-08-07T05:54:09.508Z,13.14
2022-08-07T05:56:03.263Z,12.94
2022-08-07T05:58:40.941Z,12.66
2022-08-07T06:01:18.701Z,12.58
2022-08-07T06:03:58.827Z,12.42
2022-08-07T06:06:35.762Z,12.00
2022-08-07T06:09:06.889Z,11.91
2022-08-07T06:11:39.951Z,11.93
2022-08-07T06:14:12.047Z,12.00
2022-08-07T06:16:56.408Z,11.49
2022-08-07T06:19:52.391Z,11.18
2022-08-07T06:22:24.027Z,11.03
2022-08-07T06:25:10.305Z,10.87
2022-08-07T06:28:00.007Z,11.15
2022-08-07T06:30:36.115Z,10.46
2022-08-07T06:33:16.129Z,11.05
2022-08-07T06:36:06.264Z,11.62
2022-08-07T06:38:35.167Z,11.57
2022-08-07T06:41:13.134Z,11.27
2022-08-07T06:43:59.406Z,11.12
2022-08-07T06:46:35.510Z,11.13
2022-08-07T06:49:05.638Z,10.88
2022-08-07T06:51:49.540Z,10.64
2022-08-07T06:55:32.194Z,11.12
2022-08-07T06:57:13.829Z,10.40
2022-08-07T07:00:12.200Z,10.63
2022-08-07T07:02:48.568Z,10.51
2022-08-07T07:06:03.730Z,10.45
2022-08-07T07:08:12.289Z,10.67
2022-08-07T07:10:47.494Z,10.54
2022-08-07T07:13:56.727Z,9.94
2022-08-07T07:16:22.390Z,10.39
2022-08-07T07:19:34.123Z,10.79
2022-08-07T07:22:04.812Z,11.20
2022-08-07T07:24:43.148Z,11.49
2022-08-07T07:27:28.011Z,11.60
2022-08-07T07:30:09.814Z,11.75
2022-08-07T07:32:42.667Z,12.02
2022-08-07T07:35:12.661Z,12.56
2022-08-07T07:37:56.169Z,12.47
2022-08-07T07:40:32.548Z,12.41
2022-08-07T07:43:15.168Z,12.47
2022-08-07T07:46:50.447Z,12.65
2022-08-07T07:48:36.692Z,12.19
2022-08-07T07:51:08.032Z,13.02
2022-08-07T07:53:48.163Z,13.48
2022-08-07T07:56:30.103Z,13.71
2022-08-07T07:59:05.862Z,13.92
2022-08-07T08:02:02.947Z,14.63
2022-08-07T08:04:27.786Z,14.22
2022-08-07T08:06:56.401Z,14.06
2022-08-07T08:09:30.020Z,14.01
2022-08-07T08:12:02.413Z,13.58
2022-08-07T08:14:34.508Z,14.25
2022-08-07T08:17:55.497Z,14.07
2022-08-07T08:20:17.859Z,13.68
2022-08-07T08:23:12.286Z,13.57
2022-08-07T08:26:07.025Z,14.32
2022-08-07T08:28:43.472Z,14.79
2022-08-07T08:31:22.963Z,14.78
2022-08-07T08:34:12.407Z,14.45
2022-08-07T08:36:41.190Z,14.90
2022-08-07T08:39:15.361Z,14.67
2022-08-07T08:42:06.455Z,14.74
2022-08-07T08:45:04.310Z,14.84
2022-08-07T08:47:47.284Z,15.17
2022-08-07T08:50:35.242Z,15.69
2022-08-07T08:53:30.739Z,15.29
2022-08-07T08:56:03.355Z,16.21
2022-08-07T08:58:40.879Z,16.15
2022-08-07T09:01:30.028Z,16.32
2022-08-07T09:04:28.656Z,16.59
2022-08-07T09:07:04.059Z,16.83
2022-08-07T09:09:47.380Z,16.85
2022-08-07T09:12:53.479Z,17.18
2022-08-07T09:16:23.468Z,17.19
2022-08-07T09:18:36.867Z,17.20
2022-08-07T09:22:09.948Z,17.63
2022-08-07T09:24:58.708Z,16.51
2022-08-07T09:28:00.585Z,17.58
2022-08-07T09:31:08.569Z,17.92
2022-08-07T09:33:57.323Z,18.14
2022-08-07T09:36:49.812Z,18.38
2022-08-07T09:39:54.869Z,18.86
2022-08-07T09:42:41.135Z,18.35
2022-08-07T09:47:25.943Z,19.53
2022-08-07T09:48:30.148Z,19.61
2022-08-07T09:51:04.189Z,20.57
2022-08-07T09:53:50.118Z,20.51
2022-08-07T09:56:53.929Z,20.56
2022-08-07T10:00:01.007Z,20.90
2022-08-07T10:04:05.372Z,20.60
2022-08-07T10:06:42.679Z,21.05
2022-08-07T10:09:59.088Z,20.97
2022-08-07T10:13:03.619Z,20.96
2022-08-07T10:15:49.192Z,21.38
2022-08-07T10:18:20.524Z,21.70
2022-08-07T10:21:50.567Z,21.66
2022-08-07T10:24:10.162Z,21.55
2022-08-07T10:26:54.458Z,21.92
2022-08-07T10:29:43.338Z,22.04
2022-08-07T10:32:52.849Z,21.91
2022-08-07T10:35:55.159Z,22.19
2022-08-07T10:38:41.967Z,22.76
2022-08-07T10:41:53.812Z,22.35
2022-08-07T10:45:00.085Z,21.78
2022-08-07T10:47:52.797Z,22.49
2022-08-07T10:50:26.605Z,23.22
2022-08-07T10:53:22.587Z,23.07
2022-08-07T10:56:21.035Z,23.28
2022-08-07T10:59:24.341Z,23.64
2022-08-07T11:02:12.526Z,23.95
2022-08-07T11:04:58.316Z,24.18
2022-08-07T11:07:59.609Z,23.59
2022-08-07T11:10:41.064Z,23.80
2022-08-07T11:14:42.449Z,24.20
2022-08-07T11:16:19.546Z,24.07
2022-08-07T11:18:54.723Z,24.26
2022-08-07T11:21:42.966Z,23.70
2022-08-07T11:24:13.454Z,23.90
2022-08-07T11:27:01.218Z,23.99
2022-08-07T11:30:18.673Z,23.79
2022-08-07T11:32:46.520Z,24.99
2022-08-07T11:35:26.820Z,25.27
2022-08-07T11:38:42.769Z,24.96
2022-08-07T11:41:59.995Z,25.65
2022-08-07T11:44:37.925Z,25.26
2022-08-07T11:47:56.238Z,25.42
2022-08-07T11:50:57.298Z,26.03
2022-08-07T11:53:25.523Z,26.30
2022-08-07T11:56:27.287Z,26.25
2022-08-07T12:00:11.262Z,26.54
2022-08-07T12:02:34.337Z,26.47
2022-08-07T12:05:47.328Z,25.67
2022-08-07T12:08:31.813Z,26.44
2022-08-07T12:11:22.878Z,26.45
2022-08-07T12:14:02.096Z,26.39
2022-08-07T12:16:34.554Z,26.66
2022-08-07T12:19:21.640Z,26.79
2022-08-07T12:22:39.467Z,27.04
2022-08-07T12:26:05.351Z,27.04
2022-08-07T12:28:53.136Z,27.13
2022-08-07T12:32:01.645Z,27.05
2022-08-07T12:34:39.113Z,27.67
2022-08-07T12:37:16.440Z,27.48
2022-08-07T12:39:52.703Z,27.77
2022-08-07T12:42:27.628Z,28.01
2022-08-07T12:45:05.711Z,27.72
2022-08-07T12:47:56.059Z,27.42
2022-08-07T12:50:55.974Z,27.33
2022-08-07T12:54:37.479Z,27.20
2022-08-07T12:56:51.492Z,27.68
2022-08-07T12:59:53.913Z,27.62
2022-08-07T13:02:42.298Z,27.86
2022-08-07T13:06:03.087Z,27.90
2022-08-07T13:08:57.833Z,28.41
2022-08-07T13:12:03.544Z,28.66
2022-08-07T13:14:52.915Z,28.67
2022-08-07T13:17:39.943Z,28.83
2022-08-07T13:20:46.701Z,29.09
2022-08-07T13:24:00.661Z,29.47
2022-08-07T13:26:26.497Z,29.60
2022-08-07T13:29:04.436Z,30.15
2022-08-07T13:31:46.283Z,30.03
2022-08-07T13:35:12.849Z,29.77
2022-08-07T13:38:02.873Z,29.77
2022-08-07T13:41:17.106Z,29.99
2022-08-07T13:43:52.542Z,30.50
2022-08-07T13:46:33.360Z,30.95
2022-08-07T13:49:04.405Z,30.97
2022-08-07T13:52:05.294Z,30.57
2022-08-07T13:54:33.412Z,31.55
2022-08-07T13:57:05.108Z,31.47
2022-08-07T13:59:39.654Z,31.83
2022-08-07T14:02:13.105Z,31.80
2022-08-07T14:05:20.920Z,31.68
2022-08-07T14:07:59.672Z,32.21
2022-08-07T14:10:42.155Z,32.50
2022-08-07T14:13:18.015Z,33.01
2022-08-07T14:15:56.851Z,32.79
2022-08-07T14:18:39.015Z,32.53
2022-08-07T14:22:04.181Z,32.67
2022-08-07T14:24:27.152Z,32.29
2022-08-07T14:27:00.328Z,32.73
2022-08-07T14:30:05.759Z,33.07
2022-08-07T14:32:24.906Z,33.51
2022-08-07T14:34:55.487Z,33.40
2022-08-07T14:37:36.435Z,33.09
2022-08-07T14:45:59.763Z,33.41
2022-08-07T14:48:37.493Z,33.18
2022-08-07T14:54:30.129Z,33.55
2022-08-07T14:56:50.695Z,33.65
2022-08-07T15:00:04.588Z,33.81
2022-08-07T15:02:31.777Z,33.49
2022-08-07T15:05:03.703Z,33.67
2022-08-07T15:07:47.615Z,33.87
2022-08-07T15:10:25.100Z,33.88
2022-08-07T15:13:06.276Z,34.56
2022-08-07T15:15:53.684Z,34.02
2022-08-07T15:18:33.816Z,34.34
2022-08-07T15:21:44.888Z,34.77
2022-08-07T15:25:15.650Z,34.59
2022-08-07T15:26:57.838Z,34.91
2022-08-07T15:30:06.525Z,34.77
2022-08-07T15:32:39.021Z,34.38
2022-08-07T15:35:16.863Z,34.82
2022-08-07T15:38:17.829Z,35.33
2022-08-07T15:41:00.144Z,34.95
2022-08-07T15:43:53.028Z,34.81
2022-08-07T15:46:31.699Z,35.63
2022-08-07T15:49:19.508Z,35.18
2022-08-07T15:54:39.718Z,35.92
2022-08-07T15:57:28.358Z,36.17
2022-08-07T16:00:04.306Z,36.09
2022-08-07T16:02:40.508Z,34.59
2022-08-07T16:05:15.204Z,36.56
2022-08-07T16:08:30.265Z,36.67
2022-08-07T16:10:41.773Z,36.37
2022-08-07T16:13:58.524Z,37.19
2022-08-07T16:16:49.373Z,37.43
2022-08-07T16:19:59.822Z,37.11
2022-08-07T16:22:36.345Z,37.60
2022-08-07T16:25:52.414Z,37.75
2022-08-07T16:29:18.882Z,37.81
2022-08-07T16:31:51.239Z,37.85
2022-08-07T16:34:23.847Z,38.60
2022-08-07T16:38:03.036Z,39.00
2022-08-07T16:40:28.959Z,39.11
2022-08-07T16:44:03.674Z,38.60
2022-08-07T16:50:28.507Z,39.46
2022-08-07T16:54:02.907Z,38.59
2022-08-07T16:56:32.319Z,39.77
2022-08-07T16:59:18.927Z,39.10
2022-08-07T17:02:05.595Z,39.77
2022-08-07T17:06:01.577Z,40.09
2022-08-07T17:08:02.099Z,40.93
2022-08-07T17:10:54.734Z,40.30
2022-08-07T17:14:19.529Z,40.07
2022-08-07T17:16:58.070Z,41.07
2022-08-07T17:20:03.061Z,41.83
2022-08-07T17:22:56.728Z,41.72
2022-08-07T17:25:47.184Z,42.30
2022-08-07T17:28:31.559Z,42.55
2022-08-07T17:31:16.675Z,42.21
2022-08-07T17:34:32.813Z,42.73
2022-08-07T17:37:08.936Z,43.35
2022-08-07T17:40:03.412Z,43.35
2022-08-07T17:42:36.245Z,42.58
2022-08-07T17:45:57.464Z,42.21
2022-08-07T17:48:34.485Z,44.07
2022-08-07T17:51:23.089Z,42.97
2022-08-07T17:54:39.632Z,43.26
2022-08-07T17:57:21.493Z,44.39
2022-08-07T18:00:00.550Z,44.32
2022-08-07T18:02:36.827Z,44.16
2022-08-07T18:05:21.974Z,44.59
2022-08-07T18:08:03.734Z,44.40
2022-08-07T18:11:53.660Z,43.62
2022-08-07T18:13:48.730Z,44.18
2022-08-07T18:16:37.166Z,44.51
2022-08-07T18:21:10.312Z,43.46
2022-08-07T18:22:49.097Z,44.43
2022-08-07T18:25:40.737Z,44.09
2022-08-07T18:28:35.283Z,44.01
2022-08-07T18:31:50.363Z,43.26
2022-08-07T18:34:40.794Z,43.86
2022-08-07T18:38:56.625Z,43.60
2022-08-07T18:41:07.963Z,43.97
2022-08-07T18:43:57.575Z,44.30
2022-08-07T18:46:51.581Z,44.26
2022-08-07T18:50:31.092Z,44.62
2022-08-07T18:53:12.578Z,45.48
2022-08-07T18:56:15.033Z,45.66
2022-08-07T18:58:51.633Z,45.87
2022-08-07T19:02:20.166Z,46.39
2022-08-07T19:04:39.784Z,45.07
2022-08-07T19:07:52.972Z,46.90
2022-08-07T19:10:49.968Z,47.07
2022-08-07T19:13:44.344Z,46.52
2022-08-07T19:17:06.041Z,47.11
2022-08-07T19:19:48.832Z,46.20
2022-08-07T19:22:32.348Z,48.19
2022-08-07T19:25:06.778Z,47.09
2022-08-07T19:28:29.593Z,48.38
2022-08-07T19:31:00.216Z,47.98
2022-08-07T19:33:33.625Z,47.22
2022-08-07T19:36:04.368Z,47.33
2022-08-07T19:38:52.559Z,48.21
2022-08-07T19:41:44.345Z,47.81
2022-08-07T19:44:21.275Z,47.40
2022-08-07T19:46:58.018Z,48.70
2022-08-07T19:49:57.368Z,47.00
2022-08-07T19:52:27.790Z,47.92
2022-08-07T19:54:58.404Z,47.34
2022-08-07T19:58:01.299Z,48.11
2022-08-07T20:00:39.303Z,47.29
2022-08-07T20:03:33.554Z,47.58
2022-08-07T20:06:06.126Z,47.58
2022-08-07T20:08:37.978Z,49.29
2022-08-07T20:11:10.724Z,49.72
2022-08-07T20:13:56.638Z,51.24
2022-08-07T20:16:35.125Z,50.23
2022-08-07T20:19:11.111Z,51.17
2022-08-07T20:21:47.181Z,50.91
2022-08-07T20:24:22.130Z,51.53
2022-08-07T20:26:54.773Z,51.07
2022-08-07T20:29:49.234Z,51.44
2022-08-07T20:32:39.779Z,51.94
2022-08-07T20:35:12.955Z,51.49
2022-08-07T20:37:59.789Z,52.28
2022-08-07T20:40:37.648Z,51.87
2022-08-07T20:43:19.520Z,51.33
2022-08-07T20:46:28.848Z,52.13
2022-08-07T20:49:54.694Z,51.40
2022-08-07T20:51:35.945Z,51.21
2022-08-07T20:54:15.160Z,51.77
2022-08-07T20:57:04.892Z,53.05
2022-08-07T21:00:07.319Z,52.78
2022-08-07T21:02:53.836Z,52.45
2022-08-07T21:05:47.841Z,52.59
2022-08-07T21:08:15.519Z,53.04
2022-08-07T21:10:44.963Z,52.93
2022-08-07T21:13:19.393Z,53.96
2022-08-07T21:16:00.152Z,52.80
2022-08-07T21:18:33.929Z,53.73
2022-08-07T21:21:01.904Z,50.55
2022-08-07T21:23:50.423Z,53.76
2022-08-07T21:26:27.414Z,53.44
2022-08-07T21:29:06.348Z,53.35
2022-08-07T21:32:47.763Z,53.82
2022-08-07T21:34:59.520Z,52.19
2022-08-07T21:37:58.346Z,52.19
2022-08-07T21:40:59.255Z,51.50
2022-08-07T21:44:28.362Z,52.67
2022-08-07T21:47:03.277Z,54.78
2022-08-07T21:50:01.057Z,53.78
2022-08-07T21:52:43.953Z,55.21
2022-08-07T21:55:28.161Z,55.54
2022-08-07T21:58:08.413Z,54.33
2022-08-07T22:00:47.581Z,55.56
2022-08-07T22:03:42.921Z,56.45
2022-08-07T22:06:30.285Z,55.84
2022-08-07T22:09:31.504Z,54.35
2022-08-07T22:12:16.152Z,56.68
2022-08-07T22:14:59.838Z,56.01
2022-08-07T22:17:36.107Z,56.35
2022-08-07T22:20:30.413Z,57.83
2022-08-07T22:23:21.519Z,60.00
2022-08-07T22:26:12.132Z,60.45
2022-08-07T22:29:09.017Z,60.23
2022-08-07T22:32:05.686Z,54.62
2022-08-07T22:34:53.122Z,57.01
2022-08-07T22:38:01.967Z,61.97
2022-08-07T22:40:45.011Z,61.86
2022-08-07T22:43:18.087Z,62.42
2022-08-07T22:46:40.725Z,61.59
2022-08-07T22:49:19.577Z,64.24
2022-08-07T22:52:07.986Z,63.64
2022-08-07T22:55:23.139Z,62.76
2022-08-07T22:58:25.013Z,63.48
2022-08-07T23:01:07.264Z,59.06
2022-08-07T23:04:00.221Z,62.37
2022-08-07T23:07:01.563Z,62.32
2022-08-07T23:10:04.036Z,59.13
2022-08-07T23:12:39.288Z,58.03
2022-08-07T23:16:04.253Z,59.41
2022-08-07T23:18:32.048Z,62.25
2022-08-07T23:21:29.872Z,61.58
2022-08-07T23:24:06.329Z,59.35
2022-08-07T23:27:07.883Z,64.16
2022-08-07T23:30:38.934Z,58.83
2022-08-07T23:34:35.023Z,59.32
2022-08-07T23:36:07.080Z,59.89
2022-08-07T23:38:47.100Z,61.71
2022-08-07T23:42:01.398Z,59.89
2022-08-07T23:44:49.378Z,60.44
2022-08-07T23:47:46.422Z,61.91
2022-08-07T23:50:34.933Z,61.40
2022-08-07T23:53:15.311Z,61.86
2022-08-07T23:56:11.765Z,63.88
2022-08-07T23:59:10.567Z,64.05
